sensor_id;sensor_type;location;lat;lon;timestamp;P1;P2;P0
46381;PMS5003;66809;52.974;-2.514;2024-02-26T00:01:40;18.783333333333335;16.583333333333332;
46381;PMS5003;66809;52.974;-2.514;2024-02-26T00:03:40;18.7;16.516666666666666;
46381;PMS5003;66809;52.974;-2.514;2024-02-26T00:05:40;18.733333333333334;16.55;
46381;PMS5003;66809;52.974;-2.514;2024-02-26T00:07:40;18.866666666666667;16.766666666666666;
46381;PMS5003;66809;52.974;-2.514;2024-02-26T00:09:40;18.983333333333334;16.816666666666666;
46381;PMS5003;66809;52.974;-2.514;2024-02-26T00:11:40;18.9;16.816666666666666;
46381;PMS5003;66809;52.974;-2.514;2024-02-26T00:13:40;18.783333333333335;16.683333333333334;
46381;PMS5003;66809;52.974;-2.514;2024-02-26T00:15:40;18.683333333333334;16.633333333333333;
46381;PMS5003;66809;52.974;-2.514;2024-02-26T00:17:40;18.533333333333335;16.633333333333333;
46381;PMS5003;66809;52.974;-2.514;2024-02-26T00:19:40;18.616666666666667;16.716666666666665;
46381;PMS5003;66809;52.974;-2.514;2024-02-26T00:21:40;18.8;16.85;
46381;PMS5003;66809;52.974;-2.514;2024-02-26T00:23:40;18.933333333333334;16.916666666666668;
46381;PMS5003;66809;52.974;-2.514;2024-02-26T00:25:40;19.183333333333334;17.116666666666667;
46381;PMS5003;66809;52.974;-2.514;2024-02-26T00:27:40;19.333333333333332;17.216666666666665;
46381;PMS5003;66809;52.974;-2.514;2024-02-26T00:29:40;19.266666666666666;17.183333333333334;
46381;PMS5003;66809;52.974;-2.514;2024-02-26T00:31:40;19.516666666666666;17.383333333333333;
46381;PMS5003;66809;52.974;-2.514;2024-02-26T00:33:40;19.45;17.4;
46381;PMS5003;66809;52.974;-2.514;2024-02-26T00:35:40;19.516666666666666;17.5;
46381;PMS5003;66809;52.974;-2.514;2024-02-26T00:37:40;19.483333333333334;17.483333333333334;
46381;PMS5003;66809;52.974;-2.514;2024-02-26T00:39:40;19.533333333333335;17.383333333333333;
46381;PMS5003;66809;52.974;-2.514;2024-02-26T00:41:40;19.333333333333332;17.35;
46381;PMS5003;66809;52.974;-2.514;2024-02-26T00:43:40;19.333333333333332;17.366666666666667;
46381;PMS5003;66809;52.974;-2.514;2024-02-26T00:45:40;19.116666666666667;17.2;
46381;PMS5003;66809;52.974;-2.514;2024-02-26T00:47:40;18.966666666666665;17.166666666666668;
46381;PMS5003;66809;52.974;-2.514;2024-02-26T00:49:40;18.816666666666666;17.0;
46381;PMS5003;66809;52.974;-2.514;2024-02-26T00:51:40;18.783333333333335;16.983333333333334;
46381;PMS5003;66809;52.974;-2.514;2024-02-26T00:53:40;18.633333333333333;16.85;
46381;PMS5003;66809;52.974;-2.514;2024-02-26T00:55:40;18.633333333333333;16.833333333333332;
46381;PMS5003;66809;52.974;-2.514;2024-02-26T00:57:40;18.616666666666667;16.833333333333332;
46381;PMS5003;66809;52.974;-2.514;2024-02-26T00:59:39;18.6;16.733333333333334;
46381;PMS5003;66809;52.974;-2.514;2024-02-26T01:01:40;18.4;16.55;
46381;PMS5003;66809;52.974;-2.514;2024-02-26T01:03:40;18.316666666666666;16.5;
46381;PMS5003;66809;52.974;-2.514;2024-02-26T01:05:40;18.216666666666665;16.45;
46381;PMS5003;66809;52.974;-2.514;2024-02-26T01:07:40;17.95;16.233333333333334;
46381;PMS5003;66809;52.974;-2.514;2024-02-26T01:09:40;17.766666666666666;16.15;
46381;PMS5003;66809;52.974;-2.514;2024-02-26T01:11:39;17.7;16.05;
46381;PMS5003;66809;52.974;-2.514;2024-02-26T01:13:40;17.516666666666666;15.933333333333334;
46381;PMS5003;66809;52.974;-2.514;2024-02-26T01:15:40;17.266666666666666;15.65;
46381;PMS5003;66809;52.974;-2.514;2024-02-26T01:17:40;17.0;15.483333333333333;
46381;PMS5003;66809;52.974;-2.514;2024-02-26T01:19:40;16.8;15.316666666666666;
46381;PMS5003;66809;52.974;-2.514;2024-02-26T01:21:40;16.566666666666666;15.1;
46381;PMS5003;66809;52.974;-2.514;2024-02-26T01:23:40;16.316666666666666;14.866666666666667;
46381;PMS5003;66809;52.974;-2.514;2024-02-26T01:25:40;15.85;14.483333333333333;
46381;PMS5003;66809;52.974;-2.514;2024-02-26T01:27:40;15.566666666666666;14.233333333333333;
46381;PMS5003;66809;52.974;-2.514;2024-02-26T01:29:40;15.45;14.116666666666667;
46381;PMS5003;66809;52.974;-2.514;2024-02-26T01:31:40;15.066666666666666;13.85;
46381;PMS5003;66809;52.974;-2.514;2024-02-26T01:33:40;14.75;13.55;
46381;PMS5003;66809;52.974;-2.514;2024-02-26T01:35:40;14.616666666666667;13.366666666666667;
46381;PMS5003;66809;52.974;-2.514;2024-02-26T01:37:40;14.483333333333333;13.233333333333333;
46381;PMS5003;66809;52.974;-2.514;2024-02-26T01:39:39;14.266666666666667;13.183333333333334;
46381;PMS5003;66809;52.974;-2.514;2024-02-26T01:41:40;14.116666666666667;13.016666666666667;
46381;PMS5003;66809;52.974;-2.514;2024-02-26T01:43:40;14.066666666666666;12.95;
46381;PMS5003;66809;52.974;-2.514;2024-02-26T01:45:40;14.083333333333334;12.95;
46381;PMS5003;66809;52.974;-2.514;2024-02-26T01:47:40;14.083333333333334;12.966666666666667;
46381;PMS5003;66809;52.974;-2.514;2024-02-26T01:49:40;14.2;13.05;
46381;PMS5003;66809;52.974;-2.514;2024-02-26T01:51:40;14.3;13.15;
46381;PMS5003;66809;52.974;-2.514;2024-02-26T01:53:40;14.566666666666666;13.4;
46381;PMS5003;66809;52.974;-2.514;2024-02-26T01:55:40;14.65;13.45;
46381;PMS5003;66809;52.974;-2.514;2024-02-26T01:57:40;14.666666666666666;13.466666666666667;
46381;PMS5003;66809;52.974;-2.514;2024-02-26T01:59:40;14.7;13.583333333333334;
46381;PMS5003;66809;52.974;-2.514;2024-02-26T02:01:40;14.816666666666666;13.666666666666666;
46381;PMS5003;66809;52.974;-2.514;2024-02-26T02:03:40;14.866666666666667;13.716666666666667;
46381;PMS5003;66809;52.974;-2.514;2024-02-26T02:05:40;15.0;13.783333333333333;
46381;PMS5003;66809;52.974;-2.514;2024-02-26T02:07:40;15.1;13.833333333333334;
46381;PMS5003;66809;52.974;-2.514;2024-02-26T02:09:40;15.216666666666667;13.916666666666666;
46381;PMS5003;66809;52.974;-2.514;2024-02-26T02:11:40;15.266666666666667;13.933333333333334;
46381;PMS5003;66809;52.974;-2.514;2024-02-26T02:13:40;15.483333333333333;14.116666666666667;
46381;PMS5003;66809;52.974;-2.514;2024-02-26T02:15:40;15.6;14.266666666666667;
46381;PMS5003;66809;52.974;-2.514;2024-02-26T02:17:40;15.7;14.316666666666666;
46381;PMS5003;66809;52.974;-2.514;2024-02-26T02:19:40;15.783333333333333;14.416666666666666;
46381;PMS5003;66809;52.974;-2.514;2024-02-26T02:21:40;15.95;14.566666666666666;
46381;PMS5003;66809;52.974;-2.514;2024-02-26T02:23:40;16.0;14.616666666666667;
46381;PMS5003;66809;52.974;-2.514;2024-02-26T02:25:40;16.133333333333333;14.683333333333334;
46381;PMS5003;66809;52.974;-2.514;2024-02-26T02:27:40;16.333333333333332;14.85;
46381;PMS5003;66809;52.974;-2.514;2024-02-26T02:29:41;16.366666666666667;14.883333333333333;
46381;PMS5003;66809;52.974;-2.514;2024-02-26T02:31:40;16.416666666666668;14.883333333333333;
46381;PMS5003;66809;52.974;-2.514;2024-02-26T02:33:40;16.6;15.016666666666667;
46381;PMS5003;66809;52.974;-2.514;2024-02-26T02:35:40;16.516666666666666;14.966666666666667;
46381;PMS5003;66809;52.974;-2.514;2024-02-26T02:37:40;16.7;15.133333333333333;
46381;PMS5003;66809;52.974;-2.514;2024-02-26T02:39:40;16.85;15.166666666666666;
46381;PMS5003;66809;52.974;-2.514;2024-02-26T02:41:40;16.75;15.066666666666666;
46381;PMS5003;66809;52.974;-2.514;2024-02-26T02:43:40;16.75;15.05;
46381;PMS5003;66809;52.974;-2.514;2024-02-26T02:45:40;16.75;15.033333333333333;
46381;PMS5003;66809;52.974;-2.514;2024-02-26T02:47:40;16.7;14.95;
46381;PMS5003;66809;52.974;-2.514;2024-02-26T02:49:40;16.583333333333332;14.833333333333334;
46381;PMS5003;66809;52.974;-2.514;2024-02-26T02:51:40;16.35;14.616666666666667;
46381;PMS5003;66809;52.974;-2.514;2024-02-26T02:53:40;16.233333333333334;14.433333333333334;
46381;PMS5003;66809;52.974;-2.514;2024-02-26T02:55:40;16.05;14.316666666666666;
46381;PMS5003;66809;52.974;-2.514;2024-02-26T02:57:39;16.016666666666666;14.25;
46381;PMS5003;66809;52.974;-2.514;2024-02-26T02:59:40;15.75;14.016666666666667;
46381;PMS5003;66809;52.974;-2.514;2024-02-26T03:01:40;15.65;13.933333333333334;
46381;PMS5003;66809;52.974;-2.514;2024-02-26T03:03:40;15.6;13.883333333333333;
46381;PMS5003;66809;52.974;-2.514;2024-02-26T03:05:40;15.466666666666667;13.816666666666666;
46381;PMS5003;66809;52.974;-2.514;2024-02-26T03:07:40;15.433333333333334;13.783333333333333;
46381;PMS5003;66809;52.974;-2.514;2024-02-26T03:09:40;15.366666666666667;13.716666666666667;
46381;PMS5003;66809;52.974;-2.514;2024-02-26T03:11:40;15.25;13.7;
46381;PMS5003;66809;52.974;-2.514;2024-02-26T03:13:40;15.15;13.633333333333333;
46381;PMS5003;66809;52.974;-2.514;2024-02-26T03:15:40;15.1;13.566666666666666;
46381;PMS5003;66809;52.974;-2.514;2024-02-26T03:17:40;15.016666666666667;13.483333333333333;
46381;PMS5003;66809;52.974;-2.514;2024-02-26T03:19:40;14.933333333333334;13.35;
46381;PMS5003;66809;52.974;-2.514;2024-02-26T03:21:40;14.75;13.216666666666667;
46381;PMS5003;66809;52.974;-2.514;2024-02-26T03:23:40;14.65;13.133333333333333;
46381;PMS5003;66809;52.974;-2.514;2024-02-26T03:25:41;14.566666666666666;13.1;
46381;PMS5003;66809;52.974;-2.514;2024-02-26T03:27:40;14.283333333333333;12.866666666666667;
46381;PMS5003;66809;52.974;-2.514;2024-02-26T03:29:40;14.183333333333334;12.766666666666667;
46381;PMS5003;66809;52.974;-2.514;2024-02-26T03:31:40;14.116666666666667;12.666666666666666;
46381;PMS5003;66809;52.974;-2.514;2024-02-26T03:33:40;13.916666666666666;12.516666666666667;
46381;PMS5003;66809;52.974;-2.514;2024-02-26T03:35:40;13.95;12.55;
46381;PMS5003;66809;52.974;-2.514;2024-02-26T03:37:40;13.783333333333333;12.283333333333333;
46381;PMS5003;66809;52.974;-2.514;2024-02-26T03:39:40;13.666666666666666;12.15;
46381;PMS5003;66809;52.974;-2.514;2024-02-26T03:41:40;13.65;12.133333333333333;
46381;PMS5003;66809;52.974;-2.514;2024-02-26T03:43:40;13.533333333333333;12.066666666666666;
46381;PMS5003;66809;52.974;-2.514;2024-02-26T03:45:40;13.466666666666667;11.983333333333333;
46381;PMS5003;66809;52.974;-2.514;2024-02-26T03:47:40;13.466666666666667;12.033333333333333;
46381;PMS5003;66809;52.974;-2.514;2024-02-26T03:49:40;13.4;11.983333333333333;
46381;PMS5003;66809;52.974;-2.514;2024-02-26T03:51:40;13.516666666666667;12.016666666666667;
46381;PMS5003;66809;52.974;-2.514;2024-02-26T03:53:40;13.266666666666667;11.85;
46381;PMS5003;66809;52.974;-2.514;2024-02-26T03:55:40;13.166666666666666;11.733333333333333;
46381;PMS5003;66809;52.974;-2.514;2024-02-26T03:57:40;12.966666666666667;11.566666666666666;
46381;PMS5003;66809;52.974;-2.514;2024-02-26T03:59:39;13.016666666666667;11.583333333333334;
46381;PMS5003;66809;52.974;-2.514;2024-02-26T04:01:44;12.933333333333334;11.483333333333333;
46381;PMS5003;66809;52.974;-2.514;2024-02-26T04:03:40;12.866666666666667;11.416666666666666;
46381;PMS5003;66809;52.974;-2.514;2024-02-26T04:05:40;12.866666666666667;11.416666666666666;
46381;PMS5003;66809;52.974;-2.514;2024-02-26T04:07:40;12.85;11.4;
46381;PMS5003;66809;52.974;-2.514;2024-02-26T04:09:40;12.85;11.4;
46381;PMS5003;66809;52.974;-2.514;2024-02-26T04:11:40;12.833333333333334;11.283333333333333;
46381;PMS5003;66809;52.974;-2.514;2024-02-26T04:13:39;12.733333333333333;11.166666666666666;
46381;PMS5003;66809;52.974;-2.514;2024-02-26T04:15:40;12.616666666666667;11.1;
46381;PMS5003;66809;52.974;-2.514;2024-02-26T04:17:40;12.533333333333333;11.033333333333333;
46381;PMS5003;66809;52.974;-2.514;2024-02-26T04:19:40;12.516666666666667;11.033333333333333;
46381;PMS5003;66809;52.974;-2.514;2024-02-26T04:21:40;12.45;11.0;
46381;PMS5003;66809;52.974;-2.514;2024-02-26T04:23:40;12.4;10.966666666666667;
46381;PMS5003;66809;52.974;-2.514;2024-02-26T04:25:40;12.283333333333333;10.883333333333333;
46381;PMS5003;66809;52.974;-2.514;2024-02-26T04:27:40;12.266666666666667;10.833333333333334;
46381;PMS5003;66809;52.974;-2.514;2024-02-26T04:29:40;12.266666666666667;10.816666666666666;
46381;PMS5003;66809;52.974;-2.514;2024-02-26T04:31:40;12.183333333333334;10.8;
46381;PMS5003;66809;52.974;-2.514;2024-02-26T04:33:40;12.1;10.716666666666667;
46381;PMS5003;66809;52.974;-2.514;2024-02-26T04:35:40;12.033333333333333;10.666666666666666;
46381;PMS5003;66809;52.974;-2.514;2024-02-26T04:37:40;11.983333333333333;10.75;
46381;PMS5003;66809;52.974;-2.514;2024-02-26T04:39:40;11.9;10.75;
46381;PMS5003;66809;52.974;-2.514;2024-02-26T04:41:40;11.866666666666667;10.716666666666667;
46381;PMS5003;66809;52.974;-2.514;2024-02-26T04:43:40;11.9;10.75;
46381;PMS5003;66809;52.974;-2.514;2024-02-26T04:45:40;11.816666666666666;10.733333333333333;
46381;PMS5003;66809;52.974;-2.514;2024-02-26T04:47:39;11.783333333333333;10.633333333333333;
46381;PMS5003;66809;52.974;-2.514;2024-02-26T04:49:40;11.75;10.583333333333334;
46381;PMS5003;66809;52.974;-2.514;2024-02-26T04:51:40;11.533333333333333;10.45;
46381;PMS5003;66809;52.974;-2.514;2024-02-26T04:53:39;11.55;10.4;
46381;PMS5003;66809;52.974;-2.514;2024-02-26T04:55:40;11.683333333333334;10.466666666666667;
46381;PMS5003;66809;52.974;-2.514;2024-02-26T04:57:40;11.7;10.516666666666667;
46381;PMS5003;66809;52.974;-2.514;2024-02-26T04:59:40;11.75;10.566666666666666;
46381;PMS5003;66809;52.974;-2.514;2024-02-26T05:01:40;11.833333333333334;10.683333333333334;
46381;PMS5003;66809;52.974;-2.514;2024-02-26T05:03:40;11.966666666666667;10.783333333333333;
46381;PMS5003;66809;52.974;-2.514;2024-02-26T05:05:40;11.816666666666666;10.65;
46381;PMS5003;66809;52.974;-2.514;2024-02-26T05:07:40;11.8;10.616666666666667;
46381;PMS5003;66809;52.974;-2.514;2024-02-26T05:09:40;11.65;10.5;
46381;PMS5003;66809;52.974;-2.514;2024-02-26T05:11:40;11.6;10.516666666666667;
46381;PMS5003;66809;52.974;-2.514;2024-02-26T05:13:40;11.583333333333334;10.55;
46381;PMS5003;66809;52.974;-2.514;2024-02-26T05:15:40;11.7;10.633333333333333;
46381;PMS5003;66809;52.974;-2.514;2024-02-26T05:17:40;11.766666666666667;10.683333333333334;
46381;PMS5003;66809;52.974;-2.514;2024-02-26T05:19:40;11.916666666666666;10.783333333333333;
46381;PMS5003;66809;52.974;-2.514;2024-02-26T05:21:40;12.2;10.966666666666667;
46381;PMS5003;66809;52.974;-2.514;2024-02-26T05:23:40;12.366666666666667;11.133333333333333;
46381;PMS5003;66809;52.974;-2.514;2024-02-26T05:25:40;12.533333333333333;11.3;
46381;PMS5003;66809;52.974;-2.514;2024-02-26T05:27:39;12.783333333333333;11.55;
46381;PMS5003;66809;52.974;-2.514;2024-02-26T05:29:40;12.983333333333333;11.733333333333333;
46381;PMS5003;66809;52.974;-2.514;2024-02-26T05:31:41;13.366666666666667;12.05;
46381;PMS5003;66809;52.974;-2.514;2024-02-26T05:33:40;13.633333333333333;12.233333333333333;
46381;PMS5003;66809;52.974;-2.514;2024-02-26T05:35:40;13.866666666666667;12.366666666666667;
46381;PMS5003;66809;52.974;-2.514;2024-02-26T05:37:40;14.133333333333333;12.583333333333334;
46381;PMS5003;66809;52.974;-2.514;2024-02-26T05:39:39;14.433333333333334;12.783333333333333;
46381;PMS5003;66809;52.974;-2.514;2024-02-26T05:41:40;14.583333333333334;12.933333333333334;
46381;PMS5003;66809;52.974;-2.514;2024-02-26T05:43:40;14.766666666666667;13.1;
46381;PMS5003;66809;52.974;-2.514;2024-02-26T05:45:39;15.033333333333333;13.333333333333334;
46381;PMS5003;66809;52.974;-2.514;2024-02-26T05:47:40;15.283333333333333;13.633333333333333;
46381;PMS5003;66809;52.974;-2.514;2024-02-26T05:49:40;15.55;13.883333333333333;
46381;PMS5003;66809;52.974;-2.514;2024-02-26T05:51:40;15.75;14.083333333333334;
46381;PMS5003;66809;52.974;-2.514;2024-02-26T05:53:40;16.133333333333333;14.383333333333333;
46381;PMS5003;66809;52.974;-2.514;2024-02-26T05:55:40;16.4;14.7;
46381;PMS5003;66809;52.974;-2.514;2024-02-26T05:57:40;16.7;14.916666666666666;
46381;PMS5003;66809;52.974;-2.514;2024-02-26T05:59:40;16.933333333333334;15.1;
46381;PMS5003;66809;52.974;-2.514;2024-02-26T06:01:40;17.05;15.2;
46381;PMS5003;66809;52.974;-2.514;2024-02-26T06:03:40;17.2;15.366666666666667;
46381;PMS5003;66809;52.974;-2.514;2024-02-26T06:05:40;17.483333333333334;15.666666666666666;
46381;PMS5003;66809;52.974;-2.514;2024-02-26T06:07:40;17.616666666666667;15.8;
46381;PMS5003;66809;52.974;-2.514;2024-02-26T06:09:40;17.833333333333332;16.016666666666666;
46381;PMS5003;66809;52.974;-2.514;2024-02-26T06:11:40;18.133333333333333;16.266666666666666;
46381;PMS5003;66809;52.974;-2.514;2024-02-26T06:13:40;18.5;16.516666666666666;
46381;PMS5003;66809;52.974;-2.514;2024-02-26T06:15:39;18.533333333333335;16.566666666666666;
46381;PMS5003;66809;52.974;-2.514;2024-02-26T06:17:40;18.583333333333332;16.633333333333333;
46381;PMS5003;66809;52.974;-2.514;2024-02-26T06:19:40;18.55;16.666666666666668;
46381;PMS5003;66809;52.974;-2.514;2024-02-26T06:21:40;18.5;16.666666666666668;
46381;PMS5003;66809;52.974;-2.514;2024-02-26T06:23:40;18.433333333333334;16.616666666666667;
46381;PMS5003;66809;52.974;-2.514;2024-02-26T06:25:40;18.55;16.65;
46381;PMS5003;66809;52.974;-2.514;2024-02-26T06:27:40;18.483333333333334;16.616666666666667;
46381;PMS5003;66809;52.974;-2.514;2024-02-26T06:29:40;18.45;16.583333333333332;
46381;PMS5003;66809;52.974;-2.514;2024-02-26T06:31:40;18.266666666666666;16.466666666666665;
46381;PMS5003;66809;52.974;-2.514;2024-02-26T06:33:40;18.166666666666668;16.45;
46381;PMS5003;66809;52.974;-2.514;2024-02-26T06:35:40;17.983333333333334;16.316666666666666;
46381;PMS5003;66809;52.974;-2.514;2024-02-26T06:37:40;17.75;16.15;
46381;PMS5003;66809;52.974;-2.514;2024-02-26T06:39:41;17.533333333333335;16.066666666666666;
46381;PMS5003;66809;52.974;-2.514;2024-02-26T06:41:40;17.416666666666668;15.983333333333333;
46381;PMS5003;66809;52.974;-2.514;2024-02-26T06:43:40;17.2;15.8;
46381;PMS5003;66809;52.974;-2.514;2024-02-26T06:45:40;16.933333333333334;15.566666666666666;
46381;PMS5003;66809;52.974;-2.514;2024-02-26T06:47:39;16.666666666666668;15.283333333333333;
46381;PMS5003;66809;52.974;-2.514;2024-02-26T06:49:40;16.416666666666668;15.1;
46381;PMS5003;66809;52.974;-2.514;2024-02-26T06:51:40;16.283333333333335;14.966666666666667;
46381;PMS5003;66809;52.974;-2.514;2024-02-26T06:53:39;16.0;14.783333333333333;
46381;PMS5003;66809;52.974;-2.514;2024-02-26T06:55:40;15.733333333333333;14.533333333333333;
46381;PMS5003;66809;52.974;-2.514;2024-02-26T06:57:40;15.6;14.4;
46381;PMS5003;66809;52.974;-2.514;2024-02-26T06:59:40;15.416666666666666;14.233333333333333;
46381;PMS5003;66809;52.974;-2.514;2024-02-26T07:01:41;15.35;14.166666666666666;
46381;PMS5003;66809;52.974;-2.514;2024-02-26T07:03:40;15.116666666666667;13.966666666666667;
46381;PMS5003;66809;52.974;-2.514;2024-02-26T07:05:40;14.983333333333333;13.816666666666666;
46381;PMS5003;66809;52.974;-2.514;2024-02-26T07:07:39;14.95;13.716666666666667;
46381;PMS5003;66809;52.974;-2.514;2024-02-26T07:09:41;15.0;13.75;
46381;PMS5003;66809;52.974;-2.514;2024-02-26T07:11:40;14.816666666666666;13.616666666666667;
46381;PMS5003;66809;52.974;-2.514;2024-02-26T07:13:40;14.633333333333333;13.5;
46381;PMS5003;66809;52.974;-2.514;2024-02-26T07:15:40;14.616666666666667;13.483333333333333;
46381;PMS5003;66809;52.974;-2.514;2024-02-26T07:17:40;14.7;13.55;
46381;PMS5003;66809;52.974;-2.514;2024-02-26T07:19:40;14.766666666666667;13.583333333333334;
46381;PMS5003;66809;52.974;-2.514;2024-02-26T07:21:39;14.866666666666667;13.633333333333333;
46381;PMS5003;66809;52.974;-2.514;2024-02-26T07:23:40;14.916666666666666;13.666666666666666;
46381;PMS5003;66809;52.974;-2.514;2024-02-26T07:25:40;14.816666666666666;13.616666666666667;
46381;PMS5003;66809;52.974;-2.514;2024-02-26T07:27:40;14.85;13.616666666666667;
46381;PMS5003;66809;52.974;-2.514;2024-02-26T07:29:40;15.016666666666667;13.683333333333334;
46381;PMS5003;66809;52.974;-2.514;2024-02-26T07:31:40;15.0;13.683333333333334;
46381;PMS5003;66809;52.974;-2.514;2024-02-26T07:33:40;15.1;13.766666666666667;
46381;PMS5003;66809;52.974;-2.514;2024-02-26T07:35:40;15.333333333333334;14.033333333333333;
46381;PMS5003;66809;52.974;-2.514;2024-02-26T07:37:40;15.35;14.05;
46381;PMS5003;66809;52.974;-2.514;2024-02-26T07:39:40;15.433333333333334;14.05;
46381;PMS5003;66809;52.974;-2.514;2024-02-26T07:41:40;15.55;14.15;
46381;PMS5003;66809;52.974;-2.514;2024-02-26T07:43:40;15.583333333333334;14.183333333333334;
46381;PMS5003;66809;52.974;-2.514;2024-02-26T07:45:40;15.666666666666666;14.233333333333333;
46381;PMS5003;66809;52.974;-2.514;2024-02-26T07:47:40;15.75;14.283333333333333;
46381;PMS5003;66809;52.974;-2.514;2024-02-26T07:49:40;15.766666666666667;14.266666666666667;
46381;PMS5003;66809;52.974;-2.514;2024-02-26T07:51:40;15.766666666666667;14.283333333333333;
46381;PMS5003;66809;52.974;-2.514;2024-02-26T07:53:40;15.816666666666666;14.316666666666666;
46381;PMS5003;66809;52.974;-2.514;2024-02-26T07:55:40;15.8;14.3;
46381;PMS5003;66809;52.974;-2.514;2024-02-26T07:57:41;15.75;14.3;
46381;PMS5003;66809;52.974;-2.514;2024-02-26T07:59:40;15.7;14.283333333333333;
46381;PMS5003;66809;52.974;-2.514;2024-02-26T08:01:40;15.583333333333334;14.183333333333334;
46381;PMS5003;66809;52.974;-2.514;2024-02-26T08:03:40;15.533333333333333;14.15;
46381;PMS5003;66809;52.974;-2.514;2024-02-26T08:05:40;15.483333333333333;14.1;
46381;PMS5003;66809;52.974;-2.514;2024-02-26T08:07:40;15.35;14.083333333333334;
46381;PMS5003;66809;52.974;-2.514;2024-02-26T08:09:40;15.25;13.95;
46381;PMS5003;66809;52.974;-2.514;2024-02-26T08:11:40;15.233333333333333;13.883333333333333;
46381;PMS5003;66809;52.974;-2.514;2024-02-26T08:13:40;15.133333333333333;13.816666666666666;
46381;PMS5003;66809;52.974;-2.514;2024-02-26T08:15:40;14.983333333333333;13.683333333333334;
46381;PMS5003;66809;52.974;-2.514;2024-02-26T08:17:40;14.9;13.616666666666667;
46381;PMS5003;66809;52.974;-2.514;2024-02-26T08:19:40;14.733333333333333;13.483333333333333;
46381;PMS5003;66809;52.974;-2.514;2024-02-26T08:21:40;14.533333333333333;13.35;
46381;PMS5003;66809;52.974;-2.514;2024-02-26T08:23:40;14.583333333333334;13.333333333333334;
46381;PMS5003;66809;52.974;-2.514;2024-02-26T08:25:40;14.533333333333333;13.3;
46381;PMS5003;66809;52.974;-2.514;2024-02-26T08:27:40;14.416666666666666;13.216666666666667;
46381;PMS5003;66809;52.974;-2.514;2024-02-26T08:29:40;14.2;13.116666666666667;
46381;PMS5003;66809;52.974;-2.514;2024-02-26T08:31:40;14.116666666666667;13.0;
46381;PMS5003;66809;52.974;-2.514;2024-02-26T08:33:40;14.066666666666666;12.916666666666666;
46381;PMS5003;66809;52.974;-2.514;2024-02-26T08:35:40;13.783333333333333;12.683333333333334;
46381;PMS5003;66809;52.974;-2.514;2024-02-26T08:37:40;13.816666666666666;12.666666666666666;
46381;PMS5003;66809;52.974;-2.514;2024-02-26T08:39:40;13.733333333333333;12.633333333333333;
46381;PMS5003;66809;52.974;-2.514;2024-02-26T08:41:40;13.616666666666667;12.533333333333333;
46381;PMS5003;66809;52.974;-2.514;2024-02-26T08:43:40;13.566666666666666;12.433333333333334;
46381;PMS5003;66809;52.974;-2.514;2024-02-26T08:45:40;13.5;12.35;
46381;PMS5003;66809;52.974;-2.514;2024-02-26T08:47:40;13.283333333333333;12.183333333333334;
46381;PMS5003;66809;52.974;-2.514;2024-02-26T08:49:42;13.166666666666666;12.066666666666666;
46381;PMS5003;66809;52.974;-2.514;2024-02-26T08:51:41;13.116666666666667;11.983333333333333;
46381;PMS5003;66809;52.974;-2.514;2024-02-26T08:53:40;12.983333333333333;11.883333333333333;
46381;PMS5003;66809;52.974;-2.514;2024-02-26T08:55:40;12.95;11.8;
46381;PMS5003;66809;52.974;-2.514;2024-02-26T08:57:40;12.733333333333333;11.6;
46381;PMS5003;66809;52.974;-2.514;2024-02-26T08:59:40;12.666666666666666;11.516666666666667;
46381;PMS5003;66809;52.974;-2.514;2024-02-26T09:01:40;12.566666666666666;11.4;
46381;PMS5003;66809;52.974;-2.514;2024-02-26T09:03:40;12.366666666666667;11.183333333333334;
46381;PMS5003;66809;52.974;-2.514;2024-02-26T09:05:40;12.116666666666667;10.95;
46381;PMS5003;66809;52.974;-2.514;2024-02-26T09:07:40;11.95;10.766666666666667;
46381;PMS5003;66809;52.974;-2.514;2024-02-26T09:09:40;11.783333333333333;10.566666666666666;
46381;PMS5003;66809;52.974;-2.514;2024-02-26T09:11:40;11.516666666666667;10.383333333333333;
46381;PMS5003;66809;52.974;-2.514;2024-02-26T09:13:40;11.233333333333333;10.083333333333334;
46381;PMS5003;66809;52.974;-2.514;2024-02-26T09:15:40;11.033333333333333;9.9;
46381;PMS5003;66809;52.974;-2.514;2024-02-26T09:17:40;10.833333333333334;9.683333333333334;
46381;PMS5003;66809;52.974;-2.514;2024-02-26T09:19:40;10.616666666666667;9.466666666666667;
46381;PMS5003;66809;52.974;-2.514;2024-02-26T09:21:42;10.35;9.233333333333333;
46381;PMS5003;66809;52.974;-2.514;2024-02-26T09:23:40;10.0;8.966666666666667;
46381;PMS5003;66809;52.974;-2.514;2024-02-26T09:25:40;9.716666666666667;8.7;